createdAt,value
2017-03-08T08:12:43.274Z,1018.4
2017-03-08T08:13:43.300Z,1018.35
2017-03-08T08:14:43.324Z,1018.4
2017-03-08T08:15:43.352Z,1018.39
2017-03-08T08:16:43.377Z,1018.43
2017-03-08T08:17:43.408Z,1018.41
2017-03-08T08:18:43.432Z,1018.39
2017-03-08T08:19:43.459Z,1018.4
2017-03-08T08:20:43.489Z,1018.43
2017-03-08T08:21:43.504Z,1018.35
2017-03-08T08:22:43.543Z,1018.36
2017-03-08T08:23:43.569Z,1018.35
2017-03-08T08:24:43.899Z,1018.4
2017-03-08T08:25:43.624Z,1018.42
2017-03-08T08:26:43.651Z,1018.41
2017-03-08T08:27:43.683Z,1018.39
2017-03-08T08:28:43.709Z,1018.35
2017-03-08T08:29:43.737Z,1018.4
2017-03-08T08:30:43.767Z,1018.65
2017-03-08T08:31:43.795Z,1018.89
2017-03-08T08:32:43.823Z,1018.96
2017-03-08T08:33:43.856Z,1019.02
2017-03-08T08:34:43.880Z,1018.98
2017-03-08T08:35:43.911Z,1019
2017-03-08T08:36:43.940Z,1018.91
2017-03-08T08:37:43.969Z,1019
2017-03-08T08:38:44.006Z,1019.03
2017-03-08T08:39:44.032Z,1018.98
2017-03-08T08:40:44.060Z,1018.95
2017-03-08T08:41:44.095Z,1019.02
2017-03-08T08:42:44.130Z,1019.03
2017-03-08T08:43:44.159Z,1019.03
2017-03-08T08:44:44.193Z,1019.05
2017-03-08T08:45:44.224Z,1019.05
2017-03-08T08:46:44.258Z,1019.04
2017-03-08T08:47:44.294Z,1019.04
2017-03-08T08:48:44.325Z,1019.13
2017-03-08T08:49:44.358Z,1019.08
2017-03-08T08:50:44.397Z,1018.97
2017-03-08T08:51:44.429Z,1019.05
2017-03-08T08:52:44.460Z,1018.97
2017-03-08T08:53:44.500Z,1019.03
2017-03-08T08:54:44.533Z,1019.05
2017-03-08T08:55:44.569Z,1019.08
2017-03-08T08:56:44.602Z,1018.98
2017-03-08T08:57:44.640Z,1019.1
2017-03-08T08:58:44.678Z,1019.08
2017-03-08T08:59:44.708Z,1019.08
2017-03-08T09:00:44.751Z,1019.13
2017-03-08T09:01:44.819Z,1019.24
2017-03-08T09:02:44.824Z,1019.19
2017-03-08T09:03:44.859Z,1019.16
2017-03-08T09:04:44.901Z,1019.11
2017-03-08T09:05:44.934Z,1019.18
2017-03-08T09:06:44.974Z,1019.19
2017-03-08T09:07:45.045Z,1019.28
2017-03-08T09:08:45.047Z,1019.37
2017-03-08T09:09:45.089Z,1019.33
2017-03-08T09:10:45.126Z,1019.3
2017-03-08T09:11:45.164Z,1019.46
2017-03-08T09:12:45.201Z,1019.55
2017-03-08T09:13:45.241Z,1019.5
2017-03-08T09:14:45.280Z,1019.49
2017-03-08T09:15:45.307Z,1019.1
2017-03-08T09:16:45.359Z,1018.77
2017-03-08T09:17:45.398Z,1018.38
2017-03-08T09:18:45.435Z,1018.48
2017-03-08T09:19:45.475Z,1018.2
2017-03-08T09:20:45.513Z,1018.29
2017-03-08T09:21:45.550Z,1018.37
2017-03-08T09:22:45.587Z,1018.2
2017-03-08T09:23:45.627Z,1018.16
2017-03-08T09:24:45.666Z,1018.19
2017-03-08T09:25:45.705Z,1018.31
2017-03-08T09:26:45.741Z,1018.27
2017-03-08T09:27:45.782Z,1018.2
2017-03-08T09:28:45.809Z,1018.19
2017-03-08T09:29:45.859Z,1018.12
2017-03-08T09:30:45.896Z,1018.13
2017-03-08T09:31:45.933Z,1018.09
2017-03-08T09:32:45.975Z,1018.01
2017-03-08T09:33:46.016Z,1018.01
2017-03-08T09:34:46.054Z,1018.02
2017-03-08T09:35:46.091Z,1018
2017-03-08T09:36:46.127Z,1018.07
2017-03-08T09:37:46.169Z,1018.03
2017-03-08T09:38:46.212Z,1017.95
2017-03-08T09:39:46.248Z,1017.93
2017-03-08T09:40:46.286Z,1017.97
2017-03-08T09:41:46.328Z,1018.03
2017-03-08T09:42:46.366Z,1017.97
2017-03-08T09:43:46.407Z,1017.97
2017-03-08T09:44:46.443Z,1017.96
2017-03-08T09:45:46.487Z,1017.95
2017-03-08T09:46:46.527Z,1017.95
2017-03-08T09:47:46.566Z,1018
2017-03-08T09:48:46.604Z,1018
2017-03-08T09:49:46.645Z,1018
2017-03-08T09:50:46.684Z,1017.92
2017-03-08T09:51:46.721Z,1018
2017-03-08T09:52:46.763Z,1017.95
2017-03-08T09:53:46.806Z,1017.89
2017-03-08T09:54:46.843Z,1017.8
2017-03-08T09:55:46.885Z,1017.83
2017-03-08T09:56:46.921Z,1017.78
2017-03-08T09:57:46.961Z,1017.78
2017-03-08T09:58:47.004Z,1017.78
2017-03-08T09:59:47.043Z,1017.72
2017-03-08T10:00:47.085Z,1017.71
2017-03-08T10:01:47.115Z,1017.66
2017-03-08T10:02:47.160Z,1017.62
2017-03-08T10:03:47.201Z,1017.64
2017-03-08T10:04:47.240Z,1017.63
2017-03-08T10:05:47.276Z,1017.64
2017-03-08T10:06:47.317Z,1017.69
2017-03-08T10:07:47.357Z,1017.66
2017-03-08T10:08:47.397Z,1017.73
2017-03-08T10:09:47.438Z,1017.72
2017-03-08T10:10:47.482Z,1017.76
2017-03-08T10:11:47.516Z,1017.84
2017-03-08T10:12:47.553Z,1017.78
2017-03-08T10:13:47.590Z,1017.79
2017-03-08T10:14:47.616Z,1017.83
2017-03-08T10:15:47.667Z,1017.84
2017-03-08T10:16:47.710Z,1017.9
2017-03-08T10:17:47.743Z,1017.92
2017-03-08T10:18:47.788Z,1017.76
2017-03-08T10:19:47.820Z,1017.71
2017-03-08T10:20:47.858Z,1017.66
2017-03-08T10:21:47.898Z,1017.59
2017-03-08T10:22:47.934Z,1017.49
2017-03-08T10:23:47.972Z,1017.6
2017-03-08T10:24:48.010Z,1017.59
2017-03-08T10:25:48.048Z,1017.57
2017-03-08T10:26:48.083Z,1017.61
2017-03-08T10:27:48.120Z,1017.58
2017-03-08T10:28:48.160Z,1017.54
2017-03-08T10:29:48.193Z,1017.57
2017-03-08T10:30:48.233Z,1017.53
2017-03-08T10:31:48.266Z,1017.51
2017-03-08T10:32:48.307Z,1017.66
2017-03-08T10:33:48.344Z,1017.7
2017-03-08T10:34:48.374Z,1017.63
2017-03-08T10:35:48.412Z,1017.72
2017-03-08T10:36:48.449Z,1017.55
2017-03-08T10:37:48.487Z,1017.54
2017-03-08T10:38:48.517Z,1017.57
2017-03-08T10:39:48.552Z,1017.57
2017-03-08T10:40:48.587Z,1017.56
2017-03-08T10:41:48.620Z,1017.58
2017-03-08T10:42:48.654Z,1017.89
2017-03-08T10:43:48.692Z,1018.28
2017-03-08T10:44:48.714Z,1017.77
2017-03-08T10:45:48.755Z,1017.74
2017-03-08T10:46:48.791Z,1017.79
2017-03-08T10:47:48.813Z,1017.8
2017-03-08T10:48:48.861Z,1017.8
2017-03-08T10:49:48.894Z,1017.74
2017-03-08T10:50:48.915Z,1017.78
2017-03-08T10:51:48.962Z,1017.71
2017-03-08T10:52:48.994Z,1017.69
2017-03-08T10:53:49.031Z,1017.68
2017-03-08T10:54:49.061Z,1017.69
2017-03-08T10:55:49.096Z,1017.7
2017-03-08T10:56:49.127Z,1017.72
2017-03-08T10:57:49.159Z,1018.59
2017-03-08T10:58:49.197Z,1018.78
2017-03-08T10:59:49.230Z,1018.41
2017-03-08T11:00:49.264Z,1017.99
2017-03-08T11:01:49.296Z,1017.75
2017-03-08T11:02:49.328Z,1017.69
2017-03-08T11:03:49.366Z,1017.72
2017-03-08T11:04:49.396Z,1017.63
2017-03-08T11:05:49.430Z,1017.61
2017-03-08T11:06:49.462Z,1017.61
2017-03-08T11:07:49.495Z,1017.59
2017-03-08T11:08:49.528Z,1017.53
2017-03-08T11:09:49.560Z,1017.57
2017-03-08T11:10:49.595Z,1017.62
2017-03-08T11:11:49.626Z,1017.61
2017-03-08T11:12:49.661Z,1017.61
2017-03-08T11:13:49.695Z,1017.65
2017-03-08T11:14:49.729Z,1017.61
2017-03-08T11:15:49.762Z,1017.62
2017-03-08T11:16:49.795Z,1017.62
2017-03-08T11:17:49.828Z,1017.58
2017-03-08T11:18:49.858Z,1017.58
2017-03-08T11:19:49.893Z,1017.52
2017-03-08T11:20:49.926Z,1017.49
2017-03-08T11:21:49.961Z,1017.45
2017-03-08T11:22:49.993Z,1017.46
2017-03-08T11:23:50.024Z,1017.38
2017-03-08T11:24:50.058Z,1017.46
2017-03-08T11:25:50.089Z,1017.38
2017-03-08T11:26:50.124Z,1017.36
2017-03-08T11:27:50.158Z,1017.42
2017-03-08T11:28:50.188Z,1017.44
2017-03-08T11:29:50.223Z,1017.42
2017-03-08T11:30:50.255Z,1017.38
2017-03-08T11:31:50.292Z,1017.42
2017-03-08T11:32:50.325Z,1017.4
2017-03-08T11:33:50.353Z,1017.44
2017-03-08T11:34:50.387Z,1017.4
2017-03-08T11:35:50.570Z,1017.35
2017-03-08T11:36:50.452Z,1017.35
2017-03-08T11:37:50.486Z,1017.36
2017-03-08T11:38:50.519Z,1017.32
2017-03-08T11:39:50.551Z,1017.36
2017-03-08T11:40:50.580Z,1017.27
2017-03-08T11:41:50.617Z,1017.31
2017-03-08T11:42:50.651Z,1017.26
2017-03-08T11:43:50.695Z,1017.24
2017-03-08T11:44:50.710Z,1017.25
2017-03-08T11:45:50.745Z,1017.23
2017-03-08T11:46:50.776Z,1017.23
2017-03-08T11:47:50.810Z,1017.18
2017-03-08T11:48:50.841Z,1017.12
2017-03-08T11:49:50.871Z,1017.17
2017-03-08T11:50:50.910Z,1017.13
2017-03-08T11:51:50.936Z,1017.07
2017-03-08T11:52:50.968Z,1017.13
2017-03-08T11:53:51.009Z,1017.07
2017-03-08T11:54:51.026Z,1017.11
2017-03-08T11:55:51.072Z,1017.1
2017-03-08T11:56:51.098Z,1017.14
2017-03-08T11:57:51.116Z,1017.16
2017-03-08T11:58:51.162Z,1017.11
2017-03-08T11:59:51.199Z,1017.05
2017-03-08T12:00:51.228Z,1017.08
2017-03-08T12:01:51.259Z,1017.09
2017-03-08T12:02:51.290Z,1016.98
2017-03-08T12:03:51.320Z,1016.92
2017-03-08T12:04:51.359Z,1016.95
2017-03-08T12:05:51.390Z,1016.88
2017-03-08T12:06:51.422Z,1016.91
2017-03-08T12:07:51.453Z,1016.89
2017-03-08T12:08:51.484Z,1016.85
2017-03-08T12:09:51.517Z,1016.92
2017-03-08T12:10:51.549Z,1016.9
2017-03-08T12:11:51.583Z,1016.84
2017-03-08T12:12:51.617Z,1016.79
2017-03-08T12:13:51.645Z,1016.8
2017-03-08T12:14:51.680Z,1016.81
2017-03-08T12:15:51.713Z,1016.79
2017-03-08T12:16:51.742Z,1016.74
2017-03-08T12:17:51.773Z,1016.81
2017-03-08T12:18:51.808Z,1016.78
2017-03-08T12:19:51.837Z,1016.72
2017-03-08T12:20:51.871Z,1016.7
2017-03-08T12:21:52.005Z,1016.71
2017-03-08T12:22:51.938Z,1016.67
2017-03-08T12:23:51.967Z,1016.64
2017-03-08T12:24:52.002Z,1016.73
2017-03-08T12:25:52.033Z,1016.64
2017-03-08T12:26:52.063Z,1016.63
2017-03-08T12:27:52.096Z,1016.7
2017-03-08T12:28:52.114Z,1016.61
2017-03-08T12:29:52.160Z,1016.58
2017-03-08T12:30:52.193Z,1016.55
2017-03-08T12:31:52.221Z,1016.5
2017-03-08T12:32:52.255Z,1016.53
2017-03-08T12:33:52.288Z,1016.6
2017-03-08T12:34:52.320Z,1016.51
2017-03-08T12:35:52.351Z,1016.51
2017-03-08T12:36:52.388Z,1016.51
2017-03-08T12:37:52.414Z,1016.5
2017-03-08T12:38:52.449Z,1016.51
2017-03-08T12:39:52.478Z,1016.53
2017-03-08T12:40:52.511Z,1016.44
2017-03-08T12:41:52.543Z,1016.5
2017-03-08T12:42:52.575Z,1016.43
2017-03-08T12:43:52.609Z,1016.46
2017-03-08T12:44:52.641Z,1016.44
2017-03-08T12:45:52.670Z,1016.42
2017-03-08T12:46:52.704Z,1016.43
2017-03-08T12:47:52.734Z,1016.49
2017-03-08T12:48:52.762Z,1016.42
2017-03-08T12:49:52.794Z,1016.42
2017-03-08T12:50:52.813Z,1016.47
2017-03-08T12:51:52.864Z,1016.43
2017-03-08T12:52:52.892Z,1016.44
2017-03-08T12:53:52.920Z,1016.45
2017-03-08T12:54:52.956Z,1016.44
2017-03-08T12:55:52.986Z,1016.35
2017-03-08T12:56:53.017Z,1016.35
2017-03-08T12:57:53.049Z,1016.34
2017-03-08T12:58:53.080Z,1016.34
2017-03-08T12:59:53.114Z,1016.35
2017-03-08T13:00:53.146Z,1016.37
2017-03-08T13:01:53.179Z,1016.36
2017-03-08T13:02:53.211Z,1016.44
2017-03-08T13:03:53.239Z,1016.4
2017-03-08T13:04:53.271Z,1016.43
2017-03-08T13:05:53.303Z,1016.35
2017-03-08T13:06:53.335Z,1016.36
2017-03-08T13:07:53.367Z,1016.3
2017-03-08T13:08:53.402Z,1016.35
2017-03-08T13:09:53.429Z,1016.26
2017-03-08T13:10:53.464Z,1016.17
2017-03-08T13:11:53.492Z,1016.22
2017-03-08T13:12:53.812Z,1016.18
2017-03-08T13:13:53.559Z,1016.24
2017-03-08T13:14:53.589Z,1016.19
2017-03-08T13:15:53.619Z,1016.14
2017-03-08T13:16:53.651Z,1016.03
2017-03-08T13:17:53.684Z,1016
2017-03-08T13:18:53.715Z,1015.93
2017-03-08T13:19:53.745Z,1015.91
2017-03-08T13:20:53.778Z,1015.93
2017-03-08T13:21:53.811Z,1015.92
2017-03-08T13:22:53.844Z,1015.98
2017-03-08T13:23:53.872Z,1015.91
2017-03-08T13:24:53.905Z,1015.81
2017-03-08T13:25:53.935Z,1015.81
2017-03-08T13:26:53.964Z,1015.89
2017-03-08T13:27:54.000Z,1015.87
2017-03-08T13:28:54.031Z,1015.81
2017-03-08T13:29:54.062Z,1015.83
2017-03-08T13:30:54.097Z,1015.95
2017-03-08T13:31:54.127Z,1015.95
2017-03-08T13:32:54.158Z,1016.13
2017-03-08T13:33:54.195Z,1015.99
2017-03-08T13:34:54.210Z,1016.05
2017-03-08T13:35:54.253Z,1015.84
2017-03-08T13:36:54.283Z,1015.76
2017-03-08T13:37:54.311Z,1015.73
2017-03-08T13:38:54.347Z,1015.83
2017-03-08T13:39:54.379Z,1015.85
2017-03-08T13:40:54.407Z,1015.83
2017-03-08T13:41:54.439Z,1015.73
2017-03-08T13:42:54.470Z,1015.75
2017-03-08T13:43:54.502Z,1015.67
2017-03-08T13:44:54.530Z,1015.67
2017-03-08T13:45:54.562Z,1015.62
2017-03-08T13:46:54.597Z,1015.66
2017-03-08T13:47:54.628Z,1015.66
2017-03-08T13:48:54.661Z,1015.7
2017-03-08T13:49:54.688Z,1015.58
2017-03-08T13:50:54.719Z,1015.63
2017-03-08T13:51:54.750Z,1015.58
2017-03-08T13:52:54.784Z,1015.56
2017-03-08T13:53:54.812Z,1015.47
2017-03-08T13:54:54.844Z,1015.49
2017-03-08T13:55:54.874Z,1015.55
2017-03-08T13:56:54.908Z,1015.45
2017-03-08T13:57:54.937Z,1015.51
2017-03-08T13:58:54.966Z,1015.43
2017-03-08T13:59:55.001Z,1015.47
2017-03-08T14:00:55.029Z,1015.34
2017-03-08T14:01:55.056Z,1015.42
2017-03-08T14:02:55.088Z,1015.29
2017-03-08T14:03:55.408Z,1015.3
2017-03-08T14:04:55.151Z,1015.28
2017-03-08T14:05:55.170Z,1015.34
2017-03-08T14:06:55.214Z,1015.3
2017-03-08T14:07:55.245Z,1015.25
2017-03-08T14:08:55.272Z,1015.27
2017-03-08T14:09:55.305Z,1015.17
2017-03-08T14:10:55.335Z,1015.16
2017-03-08T14:11:55.369Z,1015.09
2017-03-08T14:12:55.400Z,1015.02
2017-03-08T14:13:55.452Z,1014.98
2017-03-08T14:14:55.456Z,1015.05
2017-03-08T14:15:55.491Z,1015
2017-03-08T14:16:55.518Z,1014.99
2017-03-08T14:17:55.549Z,1014.95
2017-03-08T14:18:55.582Z,1014.95
2017-03-08T14:19:55.612Z,1014.83
2017-03-08T14:20:55.644Z,1014.9
2017-03-08T14:21:55.675Z,1014.91
2017-03-08T14:22:55.705Z,1014.94
2017-03-08T14:23:55.737Z,1014.94
2017-03-08T14:24:55.767Z,1014.93
2017-03-08T14:25:55.800Z,1014.97
2017-03-08T14:26:55.828Z,1015.04
2017-03-08T14:27:55.858Z,1015.02
2017-03-08T14:28:55.887Z,1014.88
2017-03-08T14:29:55.917Z,1014.87
2017-03-08T14:30:55.952Z,1014.79
2017-03-08T14:31:55.982Z,1014.83
2017-03-08T14:32:56.012Z,1014.79
2017-03-08T14:33:56.040Z,1014.82
2017-03-08T14:34:56.076Z,1014.86
2017-03-08T14:35:56.104Z,1014.97
2017-03-08T14:36:56.135Z,1014.96
2017-03-08T14:37:56.163Z,1014.87
2017-03-08T14:38:56.200Z,1014.9
2017-03-08T14:39:56.229Z,1014.94
2017-03-08T14:40:56.257Z,1014.95
2017-03-08T14:41:56.290Z,1015.02
2017-03-08T14:42:56.306Z,1014.93
2017-03-08T14:43:56.347Z,1014.91
2017-03-08T14:44:56.381Z,1014.89
2017-03-08T14:45:56.411Z,1014.85
2017-03-08T14:46:56.443Z,1014.79
2017-03-08T14:47:56.471Z,1014.71
2017-03-08T14:48:56.505Z,1014.64
2017-03-08T14:49:56.533Z,1014.62
2017-03-08T14:50:56.566Z,1014.67
2017-03-08T14:51:56.595Z,1014.61
2017-03-08T14:52:56.623Z,1014.65
2017-03-08T14:53:56.661Z,1014.49
2017-03-08T14:54:56.686Z,1014.4
2017-03-08T14:55:56.721Z,1014.32
2017-03-08T14:56:56.746Z,1014.31
2017-03-08T14:57:56.778Z,1014.29
2017-03-08T14:58:56.810Z,1014.21
2017-03-08T14:59:56.837Z,1014.21
2017-03-08T15:00:56.866Z,1014.17
2017-03-08T15:01:56.899Z,1014.21
2017-03-08T15:02:56.918Z,1014.25
2017-03-08T15:03:56.955Z,1014.15
2017-03-08T15:04:56.989Z,1014.15
2017-03-08T15:05:57.022Z,1014.12
2017-03-08T15:06:57.052Z,1014.05
2017-03-08T15:07:57.079Z,1014.13
2017-03-08T15:08:57.109Z,1014.11
2017-03-08T15:09:57.126Z,1014.18
2017-03-08T15:10:57.172Z,1014.13
2017-03-08T15:11:57.203Z,1014.03
2017-03-08T15:12:57.232Z,1014.07
2017-03-08T15:13:57.261Z,1014.15
2017-03-08T15:14:57.294Z,1014.18
2017-03-08T15:15:57.324Z,1014.2
2017-03-08T15:16:57.354Z,1014.26
2017-03-08T15:17:57.384Z,1014.19
2017-03-08T15:18:57.409Z,1014.16
2017-03-08T15:19:57.444Z,1014.22
2017-03-08T15:20:57.476Z,1014.18
2017-03-08T15:21:57.505Z,1014.14
2017-03-08T15:22:57.538Z,1014.19
2017-03-08T15:23:57.564Z,1014.17
2017-03-08T15:24:57.592Z,1014.15
2017-03-08T15:25:57.627Z,1014.13
2017-03-08T15:26:57.653Z,1014.19
2017-03-08T15:27:57.684Z,1014.16
2017-03-08T15:28:57.719Z,1014.09
2017-03-08T15:29:57.747Z,1014.05
2017-03-08T15:30:57.773Z,1014.05
2017-03-08T15:31:57.806Z,1014
2017-03-08T15:32:57.835Z,1014.09
2017-03-08T15:33:57.870Z,1014.03
2017-03-08T15:34:57.897Z,1013.99
2017-03-08T15:35:57.930Z,1013.98
2017-03-08T15:36:57.956Z,1014.01
2017-03-08T15:37:57.990Z,1013.93
2017-03-08T15:38:58.018Z,1013.88
2017-03-08T15:39:58.050Z,1013.84
2017-03-08T15:40:58.082Z,1013.85
2017-03-08T15:41:58.109Z,1013.78
2017-03-08T15:42:58.137Z,1013.74
2017-03-08T15:43:58.167Z,1013.72
2017-03-08T15:44:58.201Z,1013.71
2017-03-08T15:45:58.229Z,1013.72
2017-03-08T15:46:58.260Z,1013.67
2017-03-08T15:47:58.288Z,1013.68
2017-03-08T15:48:58.321Z,1013.65
2017-03-08T15:49:58.350Z,1013.65
2017-03-08T15:50:58.380Z,1013.68
2017-03-08T15:51:58.410Z,1013.63
2017-03-08T15:52:58.436Z,1013.57
2017-03-08T15:53:58.469Z,1013.62
2017-03-08T15:54:58.502Z,1013.67
2017-03-08T15:55:58.534Z,1013.59
2017-03-08T15:56:58.558Z,1013.51
2017-03-08T15:57:58.588Z,1013.55
2017-03-08T15:58:58.622Z,1013.6
2017-03-08T15:59:58.649Z,1013.55
2017-03-08T16:00:58.681Z,1013.52
2017-03-08T16:01:58.712Z,1013.51
2017-03-08T16:02:58.740Z,1013.53
2017-03-08T16:03:58.767Z,1013.47
2017-03-08T16:04:58.801Z,1013.44
2017-03-08T16:05:58.832Z,1013.46
2017-03-08T16:06:58.859Z,1013.45
2017-03-08T16:07:58.891Z,1013.37
2017-03-08T16:08:58.923Z,1013.42
2017-03-08T16:09:58.949Z,1013.33
2017-03-08T16:10:58.980Z,1013.28
2017-03-08T16:11:59.010Z,1013.28
2017-03-08T16:12:59.037Z,1013.24
2017-03-08T16:13:59.071Z,1013.27
2017-03-08T16:14:59.098Z,1013.27
2017-03-08T16:15:59.478Z,1013.31
2017-03-08T16:16:59.158Z,1013.27
2017-03-08T16:17:59.186Z,1013.23
2017-03-08T16:18:59.219Z,1013.2
2017-03-08T16:19:59.247Z,1013.21
2017-03-08T16:20:59.277Z,1013.1
2017-03-08T16:21:59.306Z,1013.16
2017-03-08T16:22:59.336Z,1013.05
2017-03-08T16:23:59.365Z,1013.03
2017-03-08T16:24:59.397Z,1013.05
2017-03-08T16:25:59.426Z,1013.03
2017-03-08T16:26:59.440Z,1013.12
2017-03-08T16:27:59.484Z,1013.14
2017-03-08T16:28:59.517Z,1013.05
2017-03-08T16:29:59.548Z,1013.1
2017-03-08T16:30:59.561Z,1013.1
2017-03-08T16:31:59.606Z,1013.19
2017-03-08T16:32:59.637Z,1013.04
2017-03-08T16:33:59.661Z,1013.1
2017-03-08T16:34:59.690Z,1012.97
2017-03-08T16:35:59.720Z,1012.95
2017-03-08T16:36:59.748Z,1012.93
2017-03-08T16:37:59.782Z,1012.92
2017-03-08T16:38:59.809Z,1012.82
2017-03-08T16:39:59.841Z,1012.92
2017-03-08T16:40:59.870Z,1012.94
2017-03-08T16:41:59.899Z,1012.93
2017-03-08T16:42:59.931Z,1012.9
2017-03-08T16:43:59.957Z,1012.82
2017-03-08T16:44:59.988Z,1012.8
2017-03-08T16:46:00.017Z,1012.75
2017-03-08T16:47:00.046Z,1012.77
2017-03-08T16:48:00.075Z,1012.76
2017-03-08T16:49:00.104Z,1012.71
2017-03-08T16:50:00.136Z,1012.77
2017-03-08T16:51:00.164Z,1012.68
2017-03-08T16:52:00.195Z,1012.66
2017-03-08T16:53:00.222Z,1012.67
2017-03-08T16:54:00.252Z,1012.67
2017-03-08T16:55:00.283Z,1012.56
2017-03-08T16:56:00.309Z,1012.69
